sensor_id;sensor_type;location;lat;lon;timestamp;pressure;altitude;pressure_sealevel;temperature;humidity
6132;BME280;3097;42.692;23.278;2024-03-23T00:54:02;95067.94;;;5.87;66.27
6132;BME280;3097;42.692;23.278;2024-03-23T00:56:29;95057.66;;;5.80;66.60
6132;BME280;3097;42.692;23.278;2024-03-23T00:58:54;95064.00;;;5.84;66.39
6132;BME280;3097;42.692;23.278;2024-03-23T01:01:20;95062.41;;;5.83;66.51
6132;BME280;3097;42.692;23.278;2024-03-23T01:03:46;95020.16;;;5.60;66.51
6132;BME280;3097;42.692;23.278;2024-03-23T01:06:11;95060.47;;;5.86;66.89
6132;BME280;3097;42.692;23.278;2024-03-23T01:08:37;95043.69;;;5.76;66.68
6132;BME280;3097;42.692;23.278;2024-03-23T01:11:03;95054.56;;;5.85;66.55
6132;BME280;3097;42.692;23.278;2024-03-23T01:13:28;95056.31;;;5.84;66.55
6132;BME280;3097;42.692;23.278;2024-03-23T01:15:55;95041.47;;;5.73;66.58
6132;BME280;3097;42.692;23.278;2024-03-23T01:18:21;95056.28;;;5.78;66.89
6132;BME280;3097;42.692;23.278;2024-03-23T01:20:47;95055.44;;;5.71;67.06
6132;BME280;3097;42.692;23.278;2024-03-23T01:23:13;95035.09;;;5.56;67.46
6132;BME280;3097;42.692;23.278;2024-03-23T01:25:39;95051.25;;;5.63;67.48
6132;BME280;3097;42.692;23.278;2024-03-23T01:28:05;95064.06;;;5.63;67.57
6132;BME280;3097;42.692;23.278;2024-03-23T01:30:32;95059.47;;;5.59;67.40
6132;BME280;3097;42.692;23.278;2024-03-23T01:32:57;95056.50;;;5.55;67.94
6132;BME280;3097;42.692;23.278;2024-03-23T01:35:23;95052.72;;;5.51;68.02
6132;BME280;3097;42.692;23.278;2024-03-23T01:37:48;95059.44;;;5.52;67.98
6132;BME280;3097;42.692;23.278;2024-03-23T01:40:16;95027.81;;;5.32;68.11
6132;BME280;3097;42.692;23.278;2024-03-23T01:42:42;95053.97;;;5.55;67.98
6132;BME280;3097;42.692;23.278;2024-03-23T01:45:08;95045.50;;;5.55;67.67
6132;BME280;3097;42.692;23.278;2024-03-23T01:47:35;95055.34;;;5.58;67.69
6132;BME280;3097;42.692;23.278;2024-03-23T01:50:01;95057.09;;;5.57;67.62
6132;BME280;3097;42.692;23.278;2024-03-23T01:52:27;95055.94;;;5.60;67.11
6132;BME280;3097;42.692;23.278;2024-03-23T01:54:53;95056.50;;;5.55;67.07
6132;BME280;3097;42.692;23.278;2024-03-23T01:57:21;95050.59;;;5.55;67.12
6132;BME280;3097;42.692;23.278;2024-03-23T01:59:47;95056.50;;;5.55;67.26
6132;BME280;3097;42.692;23.278;2024-03-23T02:02:13;95059.88;;;5.56;67.07
6132;BME280;3097;42.692;23.278;2024-03-23T02:04:39;95058.28;;;5.55;66.94
6132;BME280;3097;42.692;23.278;2024-03-23T02:07:06;95057.84;;;5.51;66.98
6132;BME280;3097;42.692;23.278;2024-03-23T02:09:33;95061.38;;;5.50;67.33
6132;BME280;3097;42.692;23.278;2024-03-23T02:11:58;95057.00;;;5.44;67.71
6132;BME280;3097;42.692;23.278;2024-03-23T02:14:24;95054.84;;;5.41;67.65
6132;BME280;3097;42.692;23.278;2024-03-23T02:16:49;95061.72;;;5.40;67.64
6132;BME280;3097;42.692;23.278;2024-03-23T02:19:15;95030.28;;;5.19;67.85
6132;BME280;3097;42.692;23.278;2024-03-23T02:21:40;95061.44;;;5.35;68.02
6132;BME280;3097;42.692;23.278;2024-03-23T02:24:06;95069.50;;;5.32;68.12
6132;BME280;3097;42.692;23.278;2024-03-23T02:26:32;95055.44;;;5.22;68.37
6132;BME280;3097;42.692;23.278;2024-03-23T02:28:57;95069.63;;;5.24;68.70
6132;BME280;3097;42.692;23.278;2024-03-23T02:31:23;95071.91;;;5.19;68.87
6132;BME280;3097;42.692;23.278;2024-03-23T02:33:48;95063.50;;;5.19;68.75
6132;BME280;3097;42.692;23.278;2024-03-23T02:36:15;95066.41;;;5.16;68.81
6132;BME280;3097;42.692;23.278;2024-03-23T02:38:41;95063.41;;;5.12;68.86
6132;BME280;3097;42.692;23.278;2024-03-23T02:41:06;95030.63;;;4.94;68.67
6132;BME280;3097;42.692;23.278;2024-03-23T02:43:32;95054.09;;;5.04;68.68
6132;BME280;3097;42.692;23.278;2024-03-23T02:45:57;95056.66;;;5.04;68.83
6132;BME280;3097;42.692;23.278;2024-03-23T02:48:23;95057.44;;;5.05;68.69
6132;BME280;3097;42.692;23.278;2024-03-23T02:50:49;95053.69;;;5.01;68.78
6132;BME280;3097;42.692;23.278;2024-03-23T02:53:15;95053.50;;;5.02;68.76
6132;BME280;3097;42.692;23.278;2024-03-23T02:55:40;95055.44;;;5.00;68.65
6132;BME280;3097;42.692;23.278;2024-03-23T02:58:06;95018.22;;;4.70;68.84
6132;BME280;3097;42.692;23.278;2024-03-23T03:03:06;95063.84;;;4.94;69.48
6132;BME280;3097;42.692;23.278;2024-03-23T03:05:32;95059.53;;;4.95;69.19
6132;BME280;3097;42.692;23.278;2024-03-23T03:07:58;95021.75;;;4.69;69.48
6132;BME280;3097;42.692;23.278;2024-03-23T03:10:23;95053.38;;;4.89;69.41
6132;BME280;3097;42.692;23.278;2024-03-23T03:12:49;95060.06;;;4.90;69.48
6132;BME280;3097;42.692;23.278;2024-03-23T03:15:14;95057.50;;;4.90;69.46
6132;BME280;3097;42.692;23.278;2024-03-23T03:17:40;95031.41;;;4.74;69.33
6132;BME280;3097;42.692;23.278;2024-03-23T03:20:07;95063.00;;;4.87;69.78
6132;BME280;3097;42.692;23.278;2024-03-23T03:22:32;95060.78;;;4.84;69.47
6132;BME280;3097;42.692;23.278;2024-03-23T03:24:58;95062.72;;;4.82;69.37
6132;BME280;3097;42.692;23.278;2024-03-23T03:27:25;95053.84;;;4.78;69.45
6132;BME280;3097;42.692;23.278;2024-03-23T03:29:50;95059.94;;;4.77;69.70
6132;BME280;3097;42.692;23.278;2024-03-23T03:32:16;95056.34;;;4.72;69.73
6132;BME280;3097;42.692;23.278;2024-03-23T03:34:41;95058.44;;;4.68;70.01
6132;BME280;3097;42.692;23.278;2024-03-23T03:37:07;95052.75;;;4.66;70.06
6132;BME280;3097;42.692;23.278;2024-03-23T03:39:32;95041.66;;;4.59;70.11
6132;BME280;3097;42.692;23.278;2024-03-23T03:41:58;95051.50;;;4.62;70.24
6132;BME280;3097;42.692;23.278;2024-03-23T03:44:23;95058.22;;;4.63;70.05
6132;BME280;3097;42.692;23.278;2024-03-23T03:46:49;95046.88;;;4.51;70.31
6132;BME280;3097;42.692;23.278;2024-03-23T03:49:14;95037.13;;;4.40;70.72
6132;BME280;3097;42.692;23.278;2024-03-23T03:51:40;95065.09;;;4.48;70.93
6132;BME280;3097;42.692;23.278;2024-03-23T03:54:06;95043.38;;;4.37;70.82
6132;BME280;3097;42.692;23.278;2024-03-23T03:56:31;95068.19;;;4.43;70.99
6132;BME280;3097;42.692;23.278;2024-03-23T03:58:57;95050.22;;;4.37;71.01
6132;BME280;3097;42.692;23.278;2024-03-23T04:01:22;95062.66;;;4.40;71.30
6132;BME280;3097;42.692;23.278;2024-03-23T04:03:48;95065.53;;;4.37;71.35
6132;BME280;3097;42.692;23.278;2024-03-23T04:06:19;95067.13;;;4.38;71.24
6132;BME280;3097;42.692;23.278;2024-03-23T04:08:45;95064.34;;;4.33;71.71
6132;BME280;3097;42.692;23.278;2024-03-23T04:11:10;95065.91;;;4.34;71.70
6132;BME280;3097;42.692;23.278;2024-03-23T04:13:36;95064.94;;;4.35;71.36
6132;BME280;3097;42.692;23.278;2024-03-23T04:16:01;95067.66;;;4.33;71.42
6132;BME280;3097;42.692;23.278;2024-03-23T04:18:27;95069.25;;;4.34;71.57
6132;BME280;3097;42.692;23.278;2024-03-23T04:20:52;95069.59;;;4.31;71.44
6132;BME280;3097;42.692;23.278;2024-03-23T04:23:18;95068.38;;;4.27;71.57
6132;BME280;3097;42.692;23.278;2024-03-23T04:25:43;95066.72;;;4.19;71.72
6132;BME280;3097;42.692;23.278;2024-03-23T04:28:09;95065.94;;;4.19;71.68
6132;BME280;3097;42.692;23.278;2024-03-23T04:30:34;95031.09;;;3.97;71.88
6132;BME280;3097;42.692;23.278;2024-03-23T04:33:00;95072.63;;;4.20;71.91
6132;BME280;3097;42.692;23.278;2024-03-23T04:35:26;95073.41;;;4.20;71.68
6132;BME280;3097;42.692;23.278;2024-03-23T04:37:53;95069.69;;;4.23;71.78
6132;BME280;3097;42.692;23.278;2024-03-23T04:40:18;95068.66;;;4.17;71.68
6132;BME280;3097;42.692;23.278;2024-03-23T04:42:44;95071.47;;;4.22;71.61
6132;BME280;3097;42.692;23.278;2024-03-23T04:45:10;95077.00;;;4.26;71.55
6132;BME280;3097;42.692;23.278;2024-03-23T04:47:37;95073.66;;;4.25;71.71
6132;BME280;3097;42.692;23.278;2024-03-23T04:50:04;95081.31;;;4.25;71.87
6132;BME280;3097;42.692;23.278;2024-03-23T04:52:30;95080.94;;;4.28;71.67
6132;BME280;3097;42.692;23.278;2024-03-23T04:54:56;95069.19;;;4.27;71.90
6132;BME280;3097;42.692;23.278;2024-03-23T04:57:21;95087.53;;;4.52;71.55
6132;BME280;3097;42.692;23.278;2024-03-23T04:59:47;95080.25;;;5.06;69.93
6132;BME280;3097;42.692;23.278;2024-03-23T05:02:13;95079.69;;;5.81;66.88
6132;BME280;3097;42.692;23.278;2024-03-23T05:04:38;95024.47;;;6.21;64.67
6132;BME280;3097;42.692;23.278;2024-03-23T05:07:05;95075.78;;;7.22;62.04
6132;BME280;3097;42.692;23.278;2024-03-23T05:09:31;94973.25;;;7.28;59.94
6132;BME280;3097;42.692;23.278;2024-03-23T05:11:58;95065.81;;;8.50;57.64
6132;BME280;3097;42.692;23.278;2024-03-23T05:14:25;95069.56;;;8.99;55.80
6132;BME280;3097;42.692;23.278;2024-03-23T05:16:52;95064.59;;;9.60;54.36
6132;BME280;3097;42.692;23.278;2024-03-23T05:19:17;95067.19;;;10.28;52.66
6132;BME280;3097;42.692;23.278;2024-03-23T05:21:43;95062.38;;;10.98;50.60
6132;BME280;3097;42.692;23.278;2024-03-23T05:24:08;95058.69;;;11.77;48.49
6132;BME280;3097;42.692;23.278;2024-03-23T05:26:34;95056.00;;;12.70;46.61
6132;BME280;3097;42.692;23.278;2024-03-23T05:29:01;95040.06;;;13.64;44.22
6132;BME280;3097;42.692;23.278;2024-03-23T05:31:28;95057.72;;;14.39;42.05
6132;BME280;3097;42.692;23.278;2024-03-23T05:33:55;95048.34;;;14.76;41.05
6132;BME280;3097;42.692;23.278;2024-03-23T05:36:21;95041.13;;;15.32;39.50
6132;BME280;3097;42.692;23.278;2024-03-23T05:38:47;95048.75;;;15.70;38.52
6132;BME280;3097;42.692;23.278;2024-03-23T05:41:12;95040.13;;;14.84;38.98
6132;BME280;3097;42.692;23.278;2024-03-23T05:43:38;95056.94;;;13.83;41.18
6132;BME280;3097;42.692;23.278;2024-03-23T05:46:03;95057.53;;;12.83;42.98
6132;BME280;3097;42.692;23.278;2024-03-23T05:48:31;95065.09;;;11.86;44.76
6132;BME280;3097;42.692;23.278;2024-03-23T05:50:57;94969.09;;;10.60;47.14
6132;BME280;3097;42.692;23.278;2024-03-23T05:53:23;95043.66;;;10.43;48.59
6132;BME280;3097;42.692;23.278;2024-03-23T05:55:49;94986.69;;;9.53;50.26
6132;BME280;3097;42.692;23.278;2024-03-23T05:58:16;95053.94;;;9.57;51.67
6132;BME280;3097;42.692;23.278;2024-03-23T06:00:45;95047.47;;;9.23;53.03
6132;BME280;3097;42.692;23.278;2024-03-23T06:03:11;95063.38;;;9.07;53.48
6132;BME280;3097;42.692;23.278;2024-03-23T06:05:37;95064.03;;;8.96;54.04
6132;BME280;3097;42.692;23.278;2024-03-23T06:08:03;95053.88;;;9.63;52.56
6132;BME280;3097;42.692;23.278;2024-03-23T06:10:29;94998.16;;;10.97;48.40
6132;BME280;3097;42.692;23.278;2024-03-23T06:12:55;95040.94;;;13.52;44.59
6132;BME280;3097;42.692;23.278;2024-03-23T06:15:21;95038.34;;;15.70;41.73
6132;BME280;3097;42.692;23.278;2024-03-23T06:17:48;94999.91;;;16.77;37.29
6132;BME280;3097;42.692;23.278;2024-03-23T06:20:14;95036.78;;;17.76;36.02
6132;BME280;3097;42.692;23.278;2024-03-23T06:22:39;95030.47;;;18.33;34.66
6132;BME280;3097;42.692;23.278;2024-03-23T06:25:06;95001.06;;;19.21;32.35
6132;BME280;3097;42.692;23.278;2024-03-23T06:27:32;95029.03;;;19.93;31.99
6132;BME280;3097;42.692;23.278;2024-03-23T06:29:59;95027.72;;;20.48;30.51
6132;BME280;3097;42.692;23.278;2024-03-23T06:32:25;95003.84;;;21.16;30.73
6132;BME280;3097;42.692;23.278;2024-03-23T06:34:51;95018.16;;;22.08;29.72
6132;BME280;3097;42.692;23.278;2024-03-23T06:37:17;95022.47;;;22.31;27.45
6132;BME280;3097;42.692;23.278;2024-03-23T06:39:42;95024.84;;;22.73;26.54
6132;BME280;3097;42.692;23.278;2024-03-23T06:42:08;95035.44;;;23.32;27.95
6132;BME280;3097;42.692;23.278;2024-03-23T06:44:34;95026.69;;;24.03;25.35
6132;BME280;3097;42.692;23.278;2024-03-23T06:47:00;95032.59;;;24.09;24.56
6132;BME280;3097;42.692;23.278;2024-03-23T06:49:25;95024.19;;;24.68;25.03
6132;BME280;3097;42.692;23.278;2024-03-23T06:51:51;95006.91;;;25.02;24.21
6132;BME280;3097;42.692;23.278;2024-03-23T06:54:18;94980.06;;;25.00;24.53
6132;BME280;3097;42.692;23.278;2024-03-23T06:56:44;95024.78;;;25.48;23.29
6132;BME280;3097;42.692;23.278;2024-03-23T06:59:10;95023.69;;;25.92;23.93
6132;BME280;3097;42.692;23.278;2024-03-23T07:01:36;94961.84;;;25.85;22.91
6132;BME280;3097;42.692;23.278;2024-03-23T07:04:01;95023.19;;;25.99;21.78
6132;BME280;3097;42.692;23.278;2024-03-23T07:06:27;95007.91;;;26.30;21.97
6132;BME280;3097;42.692;23.278;2024-03-23T07:08:53;95020.38;;;26.04;22.40
6132;BME280;3097;42.692;23.278;2024-03-23T07:11:20;95000.50;;;26.06;22.74
6132;BME280;3097;42.692;23.278;2024-03-23T07:13:46;95013.19;;;26.30;21.79
6132;BME280;3097;42.692;23.278;2024-03-23T07:16:12;95016.28;;;26.32;22.40
6132;BME280;3097;42.692;23.278;2024-03-23T07:18:38;95009.00;;;26.12;22.23
6132;BME280;3097;42.692;23.278;2024-03-23T07:21:04;95007.84;;;25.75;21.81
6132;BME280;3097;42.692;23.278;2024-03-23T07:23:32;94965.00;;;25.00;23.13
6132;BME280;3097;42.692;23.278;2024-03-23T07:28:28;95003.47;;;24.14;23.91
6132;BME280;3097;42.692;23.278;2024-03-23T07:31:02;95006.94;;;23.47;24.84
6132;BME280;3097;42.692;23.278;2024-03-23T07:33:28;95008.44;;;23.04;26.42
6132;BME280;3097;42.692;23.278;2024-03-23T07:35:55;95012.06;;;22.53;25.86
6132;BME280;3097;42.692;23.278;2024-03-23T07:38:20;95007.28;;;22.00;27.01
6132;BME280;3097;42.692;23.278;2024-03-23T07:40:46;95006.38;;;21.40;27.31
6132;BME280;3097;42.692;23.278;2024-03-23T07:43:12;94974.56;;;20.48;27.48
6132;BME280;3097;42.692;23.278;2024-03-23T07:45:38;95004.47;;;20.18;28.94
6132;BME280;3097;42.692;23.278;2024-03-23T07:48:04;94999.38;;;20.03;30.05
6132;BME280;3097;42.692;23.278;2024-03-23T07:50:30;94982.56;;;20.09;31.31
6132;BME280;3097;42.692;23.278;2024-03-23T07:52:55;95003.06;;;20.26;30.07
6132;BME280;3097;42.692;23.278;2024-03-23T07:55:21;94962.22;;;19.77;29.45
6132;BME280;3097;42.692;23.278;2024-03-23T07:57:47;95002.22;;;19.78;29.96
6132;BME280;3097;42.692;23.278;2024-03-23T08:00:13;94998.16;;;19.27;30.00
6132;BME280;3097;42.692;23.278;2024-03-23T08:02:39;94999.47;;;19.25;31.07
6132;BME280;3097;42.692;23.278;2024-03-23T08:05:05;95000.13;;;19.46;32.11
6132;BME280;3097;42.692;23.278;2024-03-23T08:07:31;94995.16;;;19.78;32.24
6132;BME280;3097;42.692;23.278;2024-03-23T08:09:56;94996.31;;;19.96;30.13
6132;BME280;3097;42.692;23.278;2024-03-23T08:12:22;94991.34;;;19.94;30.62
6132;BME280;3097;42.692;23.278;2024-03-23T08:14:47;94990.38;;;19.56;29.80
6132;BME280;3097;42.692;23.278;2024-03-23T08:17:13;94962.84;;;19.30;30.68
6132;BME280;3097;42.692;23.278;2024-03-23T08:19:39;94984.84;;;19.63;31.20
6132;BME280;3097;42.692;23.278;2024-03-23T08:22:05;94980.13;;;19.65;30.82
6132;BME280;3097;42.692;23.278;2024-03-23T08:24:31;94995.13;;;19.54;30.43
6132;BME280;3097;42.692;23.278;2024-03-23T08:26:56;94987.28;;;19.54;30.29
6132;BME280;3097;42.692;23.278;2024-03-23T08:29:22;94956.59;;;19.31;30.82
6132;BME280;3097;42.692;23.278;2024-03-23T08:31:47;94968.41;;;19.57;32.05
6132;BME280;3097;42.692;23.278;2024-03-23T08:34:13;94977.19;;;19.71;32.60
6132;BME280;3097;42.692;23.278;2024-03-23T08:36:38;94965.75;;;19.91;32.55
6132;BME280;3097;42.692;23.278;2024-03-23T08:39:04;94967.13;;;19.84;29.83
6132;BME280;3097;42.692;23.278;2024-03-23T08:41:29;94978.56;;;19.25;30.23
6132;BME280;3097;42.692;23.278;2024-03-23T08:43:55;94955.19;;;18.50;30.79
6132;BME280;3097;42.692;23.278;2024-03-23T08:46:21;94969.88;;;18.36;32.06
6132;BME280;3097;42.692;23.278;2024-03-23T08:48:46;94968.56;;;18.39;32.47
6132;BME280;3097;42.692;23.278;2024-03-23T08:51:15;94962.16;;;18.11;32.32
6132;BME280;3097;42.692;23.278;2024-03-23T08:53:41;94958.03;;;17.74;32.58
6132;BME280;3097;42.692;23.278;2024-03-23T08:56:08;94954.16;;;17.72;34.09
6132;BME280;3097;42.692;23.278;2024-03-23T08:58:34;94936.16;;;17.70;33.56
6132;BME280;3097;42.692;23.278;2024-03-23T09:01:11;94952.59;;;17.71;33.13
6132;BME280;3097;42.692;23.278;2024-03-23T09:03:38;94952.06;;;17.69;33.58
6132;BME280;3097;42.692;23.278;2024-03-23T09:06:14;94941.66;;;17.64;33.61
6132;BME280;3097;42.692;23.278;2024-03-23T09:08:40;94936.94;;;17.56;34.34
6132;BME280;3097;42.692;23.278;2024-03-23T09:11:09;94932.25;;;17.63;33.40
6132;BME280;3097;42.692;23.278;2024-03-23T09:13:36;94926.00;;;17.64;33.55
6132;BME280;3097;42.692;23.278;2024-03-23T09:16:02;94927.03;;;17.68;33.77
6132;BME280;3097;42.692;23.278;2024-03-23T09:18:27;94876.00;;;17.26;33.73
6132;BME280;3097;42.692;23.278;2024-03-23T09:20:53;94919.25;;;17.42;34.42
6132;BME280;3097;42.692;23.278;2024-03-23T09:23:20;94913.78;;;17.29;34.00
6132;BME280;3097;42.692;23.278;2024-03-23T09:25:46;94908.03;;;17.17;34.59
6132;BME280;3097;42.692;23.278;2024-03-23T09:28:11;94905.19;;;17.03;35.03
6132;BME280;3097;42.692;23.278;2024-03-23T09:30:37;94901.53;;;16.94;34.79
6132;BME280;3097;42.692;23.278;2024-03-23T09:33:09;94896.06;;;16.90;36.46
6132;BME280;3097;42.692;23.278;2024-03-23T09:35:42;94882.75;;;16.92;36.19
6132;BME280;3097;42.692;23.278;2024-03-23T09:38:09;94894.75;;;17.28;37.03
6132;BME280;3097;42.692;23.278;2024-03-23T09:40:41;94888.50;;;17.24;37.59
6132;BME280;3097;42.692;23.278;2024-03-23T09:43:07;94883.78;;;17.31;36.53
6132;BME280;3097;42.692;23.278;2024-03-23T09:45:38;94858.78;;;17.40;36.42
6132;BME280;3097;42.692;23.278;2024-03-23T09:48:04;94873.84;;;17.69;36.04
6132;BME280;3097;42.692;23.278;2024-03-23T09:50:31;94859.00;;;17.64;34.04
6132;BME280;3097;42.692;23.278;2024-03-23T09:52:56;94864.22;;;17.54;33.76
6132;BME280;3097;42.692;23.278;2024-03-23T09:55:22;94857.19;;;17.39;34.85
6132;BME280;3097;42.692;23.278;2024-03-23T09:57:47;94857.22;;;17.29;33.17
6132;BME280;3097;42.692;23.278;2024-03-23T10:00:13;94854.38;;;17.00;35.00
6132;BME280;3097;42.692;23.278;2024-03-23T10:02:39;94847.88;;;16.93;34.61
6132;BME280;3097;42.692;23.278;2024-03-23T10:05:06;94825.22;;;16.88;34.77
6132;BME280;3097;42.692;23.278;2024-03-23T10:07:44;94842.41;;;16.99;34.87
6132;BME280;3097;42.692;23.278;2024-03-23T10:10:10;94834.84;;;17.03;34.63
6132;BME280;3097;42.692;23.278;2024-03-23T10:12:44;94819.75;;;17.00;33.38
6132;BME280;3097;42.692;23.278;2024-03-23T10:15:22;94827.03;;;17.08;33.92
6132;BME280;3097;42.692;23.278;2024-03-23T10:17:48;94832.75;;;17.20;33.95
6132;BME280;3097;42.692;23.278;2024-03-23T10:20:22;94809.31;;;17.15;33.89
6132;BME280;3097;42.692;23.278;2024-03-23T10:22:49;94793.72;;;16.85;33.63
6132;BME280;3097;42.692;23.278;2024-03-23T10:25:15;94820.81;;;16.84;35.66
6132;BME280;3097;42.692;23.278;2024-03-23T10:27:41;94808.81;;;16.78;35.68
6132;BME280;3097;42.692;23.278;2024-03-23T10:30:13;94787.47;;;16.71;34.44
6132;BME280;3097;42.692;23.278;2024-03-23T10:32:42;94791.13;;;16.90;35.90
6132;BME280;3097;42.692;23.278;2024-03-23T10:35:18;94787.44;;;17.01;35.82
6132;BME280;3097;42.692;23.278;2024-03-23T10:37:44;94793.41;;;17.17;35.78
6132;BME280;3097;42.692;23.278;2024-03-23T10:40:12;94789.50;;;17.19;34.00
6132;BME280;3097;42.692;23.278;2024-03-23T10:42:38;94783.25;;;17.15;34.05
6132;BME280;3097;42.692;23.278;2024-03-23T10:45:05;94769.47;;;16.99;33.77
6132;BME280;3097;42.692;23.278;2024-03-23T10:47:32;94748.19;;;16.82;34.09
6132;BME280;3097;42.692;23.278;2024-03-23T10:49:57;94752.59;;;16.82;33.70
6132;BME280;3097;42.692;23.278;2024-03-23T10:52:23;94760.94;;;16.74;34.07
6132;BME280;3097;42.692;23.278;2024-03-23T10:54:51;94756.25;;;16.81;36.27
6132;BME280;3097;42.692;23.278;2024-03-23T10:57:31;94748.41;;;16.86;34.54
6132;BME280;3097;42.692;23.278;2024-03-23T10:59:59;94739.56;;;16.87;34.54
6132;BME280;3097;42.692;23.278;2024-03-23T11:02:27;94738.00;;;16.81;34.14
6132;BME280;3097;42.692;23.278;2024-03-23T11:04:53;94707.31;;;16.62;34.08
6132;BME280;3097;42.692;23.278;2024-03-23T11:07:30;94702.63;;;16.49;34.57
6132;BME280;3097;42.692;23.278;2024-03-23T11:09:56;94711.97;;;16.55;35.19
6132;BME280;3097;42.692;23.278;2024-03-23T11:14:52;94687.81;;;16.65;34.36
6132;BME280;3097;42.692;23.278;2024-03-23T11:17:19;94701.59;;;16.76;34.61
6132;BME280;3097;42.692;23.278;2024-03-23T11:22:42;94695.53;;;17.06;33.15
6132;BME280;3097;42.692;23.278;2024-03-23T11:25:23;94692.41;;;16.93;32.82
6132;BME280;3097;42.692;23.278;2024-03-23T11:27:50;94691.13;;;16.86;34.40
6132;BME280;3097;42.692;23.278;2024-03-23T11:30:21;94684.59;;;16.93;35.49
6132;BME280;3097;42.692;23.278;2024-03-23T11:32:54;94675.50;;;16.86;33.09
6132;BME280;3097;42.692;23.278;2024-03-23T11:35:30;94670.31;;;16.81;32.92
6132;BME280;3097;42.692;23.278;2024-03-23T11:38:08;94674.00;;;16.75;33.86
6132;BME280;3097;42.692;23.278;2024-03-23T11:40:36;94665.59;;;16.93;34.16
6132;BME280;3097;42.692;23.278;2024-03-23T11:43:07;94636.50;;;16.76;32.49
6132;BME280;3097;42.692;23.278;2024-03-23T11:45:46;94651.78;;;16.97;32.76
6132;BME280;3097;42.692;23.278;2024-03-23T11:48:12;94654.41;;;16.97;32.44
6132;BME280;3097;42.692;23.278;2024-03-23T11:50:39;94633.03;;;16.95;33.51
6132;BME280;3097;42.692;23.278;2024-03-23T11:53:18;94642.63;;;17.10;32.99
6132;BME280;3097;42.692;23.278;2024-03-23T11:58:10;94620.50;;;17.02;31.36
6132;BME280;3097;42.692;23.278;2024-03-23T12:00:36;94620.25;;;17.04;32.10
6132;BME280;3097;42.692;23.278;2024-03-23T12:03:03;94619.19;;;17.10;31.82
6132;BME280;3097;42.692;23.278;2024-03-23T12:05:29;94608.69;;;17.25;31.20
6132;BME280;3097;42.692;23.278;2024-03-23T12:07:55;94596.75;;;17.19;30.71
6132;BME280;3097;42.692;23.278;2024-03-23T12:10:21;94602.19;;;17.23;29.72
6132;BME280;3097;42.692;23.278;2024-03-23T12:13:01;94597.50;;;17.25;30.71
6132;BME280;3097;42.692;23.278;2024-03-23T12:15:27;94592.50;;;17.33;29.35
6132;BME280;3097;42.692;23.278;2024-03-23T12:18:06;94586.25;;;17.29;27.20
6132;BME280;3097;42.692;23.278;2024-03-23T12:20:31;94593.00;;;17.30;28.04
6132;BME280;3097;42.692;23.278;2024-03-23T12:23:13;94582.06;;;17.33;26.66
6132;BME280;3097;42.692;23.278;2024-03-23T12:25:39;94574.00;;;17.35;26.64
6132;BME280;3097;42.692;23.278;2024-03-23T12:28:05;94575.78;;;17.39;27.69
6132;BME280;3097;42.692;23.278;2024-03-23T12:30:35;94573.06;;;17.55;27.86
6132;BME280;3097;42.692;23.278;2024-03-23T12:33:01;94569.91;;;17.63;26.27
6132;BME280;3097;42.692;23.278;2024-03-23T12:35:27;94567.31;;;17.63;26.24
6132;BME280;3097;42.692;23.278;2024-03-23T12:37:52;94557.84;;;17.72;25.82
6132;BME280;3097;42.692;23.278;2024-03-23T12:40:18;94565.88;;;17.81;25.81
6132;BME280;3097;42.692;23.278;2024-03-23T12:42:43;94557.28;;;17.75;24.92
6132;BME280;3097;42.692;23.278;2024-03-23T12:45:09;94548.16;;;17.77;25.73
6132;BME280;3097;42.692;23.278;2024-03-23T12:47:34;94545.94;;;17.95;24.98
6132;BME280;3097;42.692;23.278;2024-03-23T12:50:00;94516.13;;;17.72;25.61
6132;BME280;3097;42.692;23.278;2024-03-23T12:52:25;94545.09;;;17.99;24.97
6132;BME280;3097;42.692;23.278;2024-03-23T12:54:56;94540.94;;;17.98;24.78
6132;BME280;3097;42.692;23.278;2024-03-23T12:57:25;94530.59;;;17.88;25.20
6132;BME280;3097;42.692;23.278;2024-03-23T12:59:51;94528.47;;;17.90;25.33
6132;BME280;3097;42.692;23.278;2024-03-23T13:02:21;94524.56;;;17.93;24.91
6132;BME280;3097;42.692;23.278;2024-03-23T13:04:49;94527.03;;;18.08;25.06
6132;BME280;3097;42.692;23.278;2024-03-23T13:07:15;94521.03;;;18.07;25.40
6132;BME280;3097;42.692;23.278;2024-03-23T13:09:41;94517.88;;;18.10;24.93
6132;BME280;3097;42.692;23.278;2024-03-23T13:12:07;94515.75;;;18.12;24.62
6132;BME280;3097;42.692;23.278;2024-03-23T13:14:33;94499.66;;;18.05;24.19
6132;BME280;3097;42.692;23.278;2024-03-23T13:16:59;94501.16;;;18.11;24.60
6132;BME280;3097;42.692;23.278;2024-03-23T13:19:24;94485.00;;;18.09;24.21
6132;BME280;3097;42.692;23.278;2024-03-23T13:21:59;94500.59;;;18.14;24.38
6132;BME280;3097;42.692;23.278;2024-03-23T13:24:26;94500.09;;;18.12;24.83
6132;BME280;3097;42.692;23.278;2024-03-23T13:26:52;94491.53;;;18.07;24.48
6132;BME280;3097;42.692;23.278;2024-03-23T13:29:21;94485.22;;;18.13;24.29
6132;BME280;3097;42.692;23.278;2024-03-23T13:31:47;94486.44;;;18.21;23.65
6132;BME280;3097;42.692;23.278;2024-03-23T13:34:13;94482.34;;;18.14;24.11
6132;BME280;3097;42.692;23.278;2024-03-23T13:36:41;94453.47;;;18.06;24.78
6132;BME280;3097;42.692;23.278;2024-03-23T13:39:07;94476.88;;;18.35;24.80
6132;BME280;3097;42.692;23.278;2024-03-23T13:41:40;94470.78;;;18.21;25.14
6132;BME280;3097;42.692;23.278;2024-03-23T13:44:07;94470.94;;;18.29;23.93
6132;BME280;3097;42.692;23.278;2024-03-23T13:46:33;94470.44;;;18.27;24.20
6132;BME280;3097;42.692;23.278;2024-03-23T13:48:59;94447.66;;;18.14;24.49
6132;BME280;3097;42.692;23.278;2024-03-23T13:51:25;94459.38;;;18.16;24.47
6132;BME280;3097;42.692;23.278;2024-03-23T13:53:54;94459.25;;;18.27;24.32
6132;BME280;3097;42.692;23.278;2024-03-23T13:56:24;94452.47;;;18.26;23.84
6132;BME280;3097;42.692;23.278;2024-03-23T13:58:49;94453.53;;;18.25;24.75
6132;BME280;3097;42.692;23.278;2024-03-23T14:01:16;94453.03;;;18.23;25.20
6132;BME280;3097;42.692;23.278;2024-03-23T14:03:42;94448.25;;;18.30;25.32
6132;BME280;3097;42.692;23.278;2024-03-23T14:06:08;94450.31;;;18.33;24.60
6132;BME280;3097;42.692;23.278;2024-03-23T14:08:35;94444.50;;;18.36;24.49
6132;BME280;3097;42.692;23.278;2024-03-23T14:11:02;94449.72;;;18.36;25.26
6132;BME280;3097;42.692;23.278;2024-03-23T14:13:28;94442.84;;;18.45;25.06
6132;BME280;3097;42.692;23.278;2024-03-23T14:15:54;94439.19;;;18.46;25.00
6132;BME280;3097;42.692;23.278;2024-03-23T14:18:20;94443.78;;;18.54;24.86